sensor_id;sensor_type;location;lat;lon;timestamp;P1;durP1;ratioP1;P2;durP2;ratioP2
58109;SDS011;58943;50.168;4.410;2023-06-14T00:01:08;4.75;;;4.30;;
58109;SDS011;58943;50.168;4.410;2023-06-14T00:03:34;4.88;;;3.83;;
58109;SDS011;58943;50.168;4.410;2023-06-14T00:06:01;5.30;;;4.50;;
58109;SDS011;58943;50.168;4.410;2023-06-14T00:08:27;8.15;;;4.00;;
58109;SDS011;58943;50.168;4.410;2023-06-14T00:10:53;6.72;;;4.05;;
58109;SDS011;58943;50.168;4.410;2023-06-14T00:13:20;4.20;;;3.80;;
58109;SDS011;58943;50.168;4.410;2023-06-14T00:15:46;4.82;;;4.05;;
58109;SDS011;58943;50.168;4.410;2023-06-14T00:18:13;4.80;;;4.30;;
58109;SDS011;58943;50.168;4.410;2023-06-14T00:20:40;4.82;;;3.72;;
58109;SDS011;58943;50.168;4.410;2023-06-14T00:23:07;5.15;;;3.78;;
58109;SDS011;58943;50.168;4.410;2023-06-14T00:25:33;6.22;;;4.18;;
58109;SDS011;58943;50.168;4.410;2023-06-14T00:28:00;4.30;;;3.80;;
58109;SDS011;58943;50.168;4.410;2023-06-14T00:30:26;4.72;;;4.22;;
58109;SDS011;58943;50.168;4.410;2023-06-14T00:32:55;4.78;;;3.47;;
58109;SDS011;58943;50.168;4.410;2023-06-14T00:35:23;4.03;;;3.65;;
58109;SDS011;58943;50.168;4.410;2023-06-14T00:37:49;3.72;;;3.42;;
58109;SDS011;58943;50.168;4.410;2023-06-14T00:40:15;4.65;;;3.97;;
58109;SDS011;58943;50.168;4.410;2023-06-14T00:42:42;5.30;;;4.28;;
58109;SDS011;58943;50.168;4.410;2023-06-14T00:45:08;4.50;;;3.90;;
58109;SDS011;58943;50.168;4.410;2023-06-14T00:47:35;5.03;;;4.25;;
58109;SDS011;58943;50.168;4.410;2023-06-14T00:50:02;5.13;;;3.90;;
58109;SDS011;58943;50.168;4.410;2023-06-14T00:52:29;5.57;;;3.83;;
58109;SDS011;58943;50.168;4.410;2023-06-14T00:54:57;5.32;;;3.72;;
58109;SDS011;58943;50.168;4.410;2023-06-14T00:57:24;4.22;;;3.83;;
58109;SDS011;58943;50.168;4.410;2023-06-14T00:59:50;4.85;;;4.20;;
58109;SDS011;58943;50.168;4.410;2023-06-14T01:02:17;5.25;;;4.22;;
58109;SDS011;58943;50.168;4.410;2023-06-14T01:04:45;6.72;;;4.00;;
58109;SDS011;58943;50.168;4.410;2023-06-14T01:12:25;4.22;;;3.80;;
58109;SDS011;58943;50.168;4.410;2023-06-14T01:14:54;5.32;;;3.95;;
58109;SDS011;58943;50.168;4.410;2023-06-14T01:17:20;4.35;;;3.85;;
58109;SDS011;58943;50.168;4.410;2023-06-14T01:19:48;4.38;;;3.97;;
58109;SDS011;58943;50.168;4.410;2023-06-14T01:22:14;4.43;;;4.03;;
58109;SDS011;58943;50.168;4.410;2023-06-14T01:24:41;4.95;;;3.80;;
58109;SDS011;58943;50.168;4.410;2023-06-14T01:27:10;4.32;;;3.88;;
58109;SDS011;58943;50.168;4.410;2023-06-14T01:29:37;5.07;;;4.13;;
58109;SDS011;58943;50.168;4.410;2023-06-14T01:32:04;4.80;;;3.63;;
58109;SDS011;58943;50.168;4.410;2023-06-14T01:34:31;6.00;;;3.88;;
58109;SDS011;58943;50.168;4.410;2023-06-14T01:36:57;5.88;;;4.10;;
58109;SDS011;58943;50.168;4.410;2023-06-14T01:39:24;4.57;;;4.13;;
58109;SDS011;58943;50.168;4.410;2023-06-14T01:41:51;4.90;;;4.15;;
58109;SDS011;58943;50.168;4.410;2023-06-14T01:44:17;4.32;;;3.85;;
58109;SDS011;58943;50.168;4.410;2023-06-14T01:46:45;4.45;;;4.05;;
58109;SDS011;58943;50.168;4.410;2023-06-14T01:49:11;6.05;;;4.47;;
58109;SDS011;58943;50.168;4.410;2023-06-14T01:51:38;7.35;;;3.85;;
58109;SDS011;58943;50.168;4.410;2023-06-14T01:54:04;4.82;;;4.18;;
58109;SDS011;58943;50.168;4.410;2023-06-14T01:56:31;4.13;;;3.70;;
58109;SDS011;58943;50.168;4.410;2023-06-14T01:58:57;4.85;;;3.90;;
58109;SDS011;58943;50.168;4.410;2023-06-14T02:01:24;4.78;;;4.15;;
58109;SDS011;58943;50.168;4.410;2023-06-14T02:03:51;6.65;;;4.60;;
58109;SDS011;58943;50.168;4.410;2023-06-14T02:06:19;5.53;;;4.63;;
58109;SDS011;58943;50.168;4.410;2023-06-14T02:08:45;5.30;;;4.00;;
58109;SDS011;58943;50.168;4.410;2023-06-14T02:11:11;5.43;;;3.92;;
58109;SDS011;58943;50.168;4.410;2023-06-14T02:13:38;5.75;;;4.13;;
58109;SDS011;58943;50.168;4.410;2023-06-14T02:16:04;4.25;;;3.85;;
58109;SDS011;58943;50.168;4.410;2023-06-14T02:18:31;4.88;;;4.38;;
58109;SDS011;58943;50.168;4.410;2023-06-14T02:20:57;7.15;;;4.07;;
58109;SDS011;58943;50.168;4.410;2023-06-14T02:23:24;5.75;;;4.05;;
58109;SDS011;58943;50.168;4.410;2023-06-14T02:25:50;4.70;;;4.20;;
58109;SDS011;58943;50.168;4.410;2023-06-14T02:28:16;7.85;;;4.47;;
58109;SDS011;58943;50.168;4.410;2023-06-14T02:30:43;4.88;;;4.38;;
58109;SDS011;58943;50.168;4.410;2023-06-14T02:33:09;4.13;;;3.72;;
58109;SDS011;58943;50.168;4.410;2023-06-14T02:35:38;5.53;;;4.40;;
58109;SDS011;58943;50.168;4.410;2023-06-14T02:38:04;5.13;;;4.13;;
58109;SDS011;58943;50.168;4.410;2023-06-14T02:40:31;5.43;;;4.18;;
58109;SDS011;58943;50.168;4.410;2023-06-14T02:42:57;5.18;;;4.25;;
58109;SDS011;58943;50.168;4.410;2023-06-14T02:45:23;5.32;;;4.65;;
58109;SDS011;58943;50.168;4.410;2023-06-14T02:47:50;5.25;;;4.75;;
58109;SDS011;58943;50.168;4.410;2023-06-14T02:50:16;4.38;;;3.90;;
58109;SDS011;58943;50.168;4.410;2023-06-14T02:52:43;5.22;;;3.97;;
58109;SDS011;58943;50.168;4.410;2023-06-14T02:55:10;5.00;;;4.50;;
58109;SDS011;58943;50.168;4.410;2023-06-14T02:57:36;4.78;;;4.20;;
58109;SDS011;58943;50.168;4.410;2023-06-14T03:00:03;5.07;;;4.07;;
58109;SDS011;58943;50.168;4.410;2023-06-14T03:02:30;6.45;;;4.40;;
58109;SDS011;58943;50.168;4.410;2023-06-14T03:04:56;5.45;;;4.35;;
58109;SDS011;58943;50.168;4.410;2023-06-14T03:07:27;4.53;;;4.13;;
58109;SDS011;58943;50.168;4.410;2023-06-14T03:09:55;4.50;;;4.03;;
58109;SDS011;58943;50.168;4.410;2023-06-14T03:12:21;4.80;;;4.28;;
58109;SDS011;58943;50.168;4.410;2023-06-14T03:14:48;6.82;;;4.30;;
58109;SDS011;58943;50.168;4.410;2023-06-14T03:17:16;4.80;;;4.30;;
58109;SDS011;58943;50.168;4.410;2023-06-14T03:19:44;5.28;;;4.32;;
58109;SDS011;58943;50.168;4.410;2023-06-14T03:22:11;5.13;;;4.43;;
58109;SDS011;58943;50.168;4.410;2023-06-14T03:24:38;4.75;;;4.28;;
58109;SDS011;58943;50.168;4.410;2023-06-14T03:27:04;4.65;;;4.15;;
58109;SDS011;58943;50.168;4.410;2023-06-14T03:29:31;4.82;;;4.32;;
58109;SDS011;58943;50.168;4.410;2023-06-14T03:32:01;5.20;;;4.70;;
58109;SDS011;58943;50.168;4.410;2023-06-14T03:34:28;5.95;;;4.50;;
58109;SDS011;58943;50.168;4.410;2023-06-14T03:36:54;5.43;;;4.28;;
58109;SDS011;58943;50.168;4.410;2023-06-14T03:39:21;5.30;;;4.13;;
58109;SDS011;58943;50.168;4.410;2023-06-14T03:41:47;4.88;;;4.25;;
58109;SDS011;58943;50.168;4.410;2023-06-14T03:44:17;5.85;;;4.55;;
58109;SDS011;58943;50.168;4.410;2023-06-14T03:46:44;5.22;;;4.60;;
58109;SDS011;58943;50.168;4.410;2023-06-14T03:49:11;5.10;;;4.40;;
58109;SDS011;58943;50.168;4.410;2023-06-14T03:51:37;5.63;;;4.90;;
58109;SDS011;58943;50.168;4.410;2023-06-14T03:54:05;6.40;;;4.63;;
58109;SDS011;58943;50.168;4.410;2023-06-14T03:56:32;7.10;;;4.55;;
58109;SDS011;58943;50.168;4.410;2023-06-14T03:58:58;5.45;;;4.70;;
58109;SDS011;58943;50.168;4.410;2023-06-14T04:01:24;4.93;;;4.45;;
58109;SDS011;58943;50.168;4.410;2023-06-14T04:03:55;4.80;;;4.10;;
58109;SDS011;58943;50.168;4.410;2023-06-14T04:06:22;6.45;;;4.72;;
58109;SDS011;58943;50.168;4.410;2023-06-14T04:08:51;5.93;;;4.30;;
58109;SDS011;58943;50.168;4.410;2023-06-14T04:11:17;5.05;;;4.18;;
58109;SDS011;58943;50.168;4.410;2023-06-14T04:13:44;5.32;;;4.80;;
58109;SDS011;58943;50.168;4.410;2023-06-14T04:16:12;5.90;;;4.72;;
58109;SDS011;58943;50.168;4.410;2023-06-14T04:18:38;5.63;;;4.60;;
58109;SDS011;58943;50.168;4.410;2023-06-14T04:21:05;5.53;;;4.20;;
58109;SDS011;58943;50.168;4.410;2023-06-14T04:23:33;6.13;;;4.72;;
58109;SDS011;58943;50.168;4.410;2023-06-14T04:26:00;5.65;;;4.28;;
58109;SDS011;58943;50.168;4.410;2023-06-14T04:28:27;4.88;;;4.35;;
58109;SDS011;58943;50.168;4.410;2023-06-14T04:30:53;5.10;;;4.28;;
58109;SDS011;58943;50.168;4.410;2023-06-14T04:33:20;4.93;;;4.43;;
58109;SDS011;58943;50.168;4.410;2023-06-14T04:35:48;4.53;;;4.10;;
58109;SDS011;58943;50.168;4.410;2023-06-14T04:38:19;5.65;;;4.30;;
58109;SDS011;58943;50.168;4.410;2023-06-14T04:40:50;4.78;;;4.30;;
58109;SDS011;58943;50.168;4.410;2023-06-14T04:43:18;5.47;;;4.80;;
58109;SDS011;58943;50.168;4.410;2023-06-14T04:45:52;6.07;;;4.55;;
58109;SDS011;58943;50.168;4.410;2023-06-14T04:48:21;4.97;;;4.35;;
58109;SDS011;58943;50.168;4.410;2023-06-14T04:50:47;5.53;;;4.60;;
58109;SDS011;58943;50.168;4.410;2023-06-14T04:53:19;5.15;;;4.57;;
58109;SDS011;58943;50.168;4.410;2023-06-14T04:55:48;5.95;;;4.47;;
58109;SDS011;58943;50.168;4.410;2023-06-14T04:58:15;4.95;;;4.45;;
58109;SDS011;58943;50.168;4.410;2023-06-14T05:00:42;5.15;;;4.13;;
58109;SDS011;58943;50.168;4.410;2023-06-14T05:03:08;5.10;;;4.60;;
58109;SDS011;58943;50.168;4.410;2023-06-14T05:05:41;6.88;;;5.38;;
58109;SDS011;58943;50.168;4.410;2023-06-14T05:08:07;5.50;;;4.93;;
58109;SDS011;58943;50.168;4.410;2023-06-14T05:10:34;6.10;;;4.70;;
58109;SDS011;58943;50.168;4.410;2023-06-14T05:13:01;5.78;;;4.47;;
58109;SDS011;58943;50.168;4.410;2023-06-14T05:15:28;5.80;;;4.63;;
58109;SDS011;58943;50.168;4.410;2023-06-14T05:17:55;7.47;;;4.95;;
58109;SDS011;58943;50.168;4.410;2023-06-14T05:20:22;6.65;;;4.65;;
58109;SDS011;58943;50.168;4.410;2023-06-14T05:22:53;4.95;;;4.47;;
58109;SDS011;58943;50.168;4.410;2023-06-14T05:25:19;5.00;;;4.50;;
58109;SDS011;58943;50.168;4.410;2023-06-14T05:27:46;5.55;;;4.50;;
58109;SDS011;58943;50.168;4.410;2023-06-14T05:30:13;6.28;;;4.65;;
58109;SDS011;58943;50.168;4.410;2023-06-14T05:32:40;5.55;;;4.82;;
58109;SDS011;58943;50.168;4.410;2023-06-14T05:35:07;5.38;;;4.70;;
58109;SDS011;58943;50.168;4.410;2023-06-14T05:37:33;5.38;;;4.50;;
58109;SDS011;58943;50.168;4.410;2023-06-14T05:39:59;5.20;;;4.55;;
58109;SDS011;58943;50.168;4.410;2023-06-14T05:42:26;5.28;;;4.78;;
58109;SDS011;58943;50.168;4.410;2023-06-14T05:44:52;5.97;;;4.40;;
58109;SDS011;58943;50.168;4.410;2023-06-14T05:47:19;7.40;;;4.53;;
58109;SDS011;58943;50.168;4.410;2023-06-14T05:49:45;5.93;;;4.50;;
58109;SDS011;58943;50.168;4.410;2023-06-14T05:52:11;5.05;;;4.55;;
58109;SDS011;58943;50.168;4.410;2023-06-14T05:54:38;6.20;;;4.65;;
58109;SDS011;58943;50.168;4.410;2023-06-14T05:57:05;5.50;;;4.93;;
58109;SDS011;58943;50.168;4.410;2023-06-14T05:59:31;6.63;;;5.38;;
58109;SDS011;58943;50.168;4.410;2023-06-14T06:01:57;5.82;;;4.63;;
58109;SDS011;58943;50.168;4.410;2023-06-14T06:04:25;6.45;;;4.80;;
58109;SDS011;58943;50.168;4.410;2023-06-14T06:06:51;5.20;;;4.65;;
58109;SDS011;58943;50.168;4.410;2023-06-14T06:09:18;6.18;;;5.13;;
58109;SDS011;58943;50.168;4.410;2023-06-14T06:11:44;6.35;;;5.15;;
58109;SDS011;58943;50.168;4.410;2023-06-14T06:14:10;5.97;;;5.38;;
58109;SDS011;58943;50.168;4.410;2023-06-14T06:16:37;5.43;;;4.93;;
58109;SDS011;58943;50.168;4.410;2023-06-14T06:19:04;5.95;;;4.97;;
58109;SDS011;58943;50.168;4.410;2023-06-14T06:21:30;6.57;;;4.88;;
58109;SDS011;58943;50.168;4.410;2023-06-14T06:23:57;8.68;;;4.95;;
58109;SDS011;58943;50.168;4.410;2023-06-14T06:26:23;8.35;;;5.40;;
58109;SDS011;58943;50.168;4.410;2023-06-14T06:28:51;6.13;;;4.93;;
58109;SDS011;58943;50.168;4.410;2023-06-14T06:31:18;7.60;;;5.32;;
58109;SDS011;58943;50.168;4.410;2023-06-14T06:33:45;6.25;;;5.15;;
58109;SDS011;58943;50.168;4.410;2023-06-14T06:36:11;6.25;;;5.30;;
58109;SDS011;58943;50.168;4.410;2023-06-14T06:38:37;7.57;;;5.10;;
58109;SDS011;58943;50.168;4.410;2023-06-14T06:41:04;6.88;;;5.07;;
58109;SDS011;58943;50.168;4.410;2023-06-14T06:43:30;6.15;;;4.90;;
58109;SDS011;58943;50.168;4.410;2023-06-14T06:45:57;6.88;;;5.07;;
58109;SDS011;58943;50.168;4.410;2023-06-14T06:48:23;6.57;;;5.53;;
58109;SDS011;58943;50.168;4.410;2023-06-14T06:50:49;9.30;;;5.03;;
58109;SDS011;58943;50.168;4.410;2023-06-14T06:53:17;6.65;;;5.07;;
58109;SDS011;58943;50.168;4.410;2023-06-14T06:55:43;6.13;;;5.10;;
58109;SDS011;58943;50.168;4.410;2023-06-14T06:58:10;5.65;;;5.05;;
58109;SDS011;58943;50.168;4.410;2023-06-14T07:00:36;5.72;;;5.00;;
58109;SDS011;58943;50.168;4.410;2023-06-14T07:03:03;5.80;;;4.80;;
58109;SDS011;58943;50.168;4.410;2023-06-14T07:05:29;6.68;;;4.97;;
58109;SDS011;58943;50.168;4.410;2023-06-14T07:07:56;6.40;;;5.05;;
58109;SDS011;58943;50.168;4.410;2023-06-14T07:10:22;5.20;;;4.70;;
58109;SDS011;58943;50.168;4.410;2023-06-14T07:12:50;6.53;;;5.22;;
58109;SDS011;58943;50.168;4.410;2023-06-14T07:15:16;7.78;;;4.97;;
58109;SDS011;58943;50.168;4.410;2023-06-14T07:17:43;5.80;;;4.95;;
58109;SDS011;58943;50.168;4.410;2023-06-14T07:20:10;5.72;;;5.10;;
58109;SDS011;58943;50.168;4.410;2023-06-14T07:22:38;6.03;;;5.25;;
58109;SDS011;58943;50.168;4.410;2023-06-14T07:25:06;6.40;;;4.93;;
58109;SDS011;58943;50.168;4.410;2023-06-14T07:27:33;6.72;;;5.20;;
58109;SDS011;58943;50.168;4.410;2023-06-14T07:30:00;6.03;;;5.25;;
58109;SDS011;58943;50.168;4.410;2023-06-14T07:32:26;5.38;;;4.80;;
58109;SDS011;58943;50.168;4.410;2023-06-14T07:34:52;6.57;;;4.80;;
58109;SDS011;58943;50.168;4.410;2023-06-14T07:37:19;6.93;;;5.13;;
58109;SDS011;58943;50.168;4.410;2023-06-14T07:39:45;5.90;;;5.30;;
58109;SDS011;58943;50.168;4.410;2023-06-14T07:42:12;7.18;;;5.53;;
58109;SDS011;58943;50.168;4.410;2023-06-14T07:44:38;6.03;;;5.25;;
58109;SDS011;58943;50.168;4.410;2023-06-14T07:47:04;8.68;;;5.38;;
58109;SDS011;58943;50.168;4.410;2023-06-14T07:49:31;6.80;;;4.97;;
58109;SDS011;58943;50.168;4.410;2023-06-14T07:51:57;7.05;;;5.32;;
58109;SDS011;58943;50.168;4.410;2023-06-14T07:54:24;7.18;;;5.00;;
58109;SDS011;58943;50.168;4.410;2023-06-14T07:56:51;6.13;;;5.20;;
58109;SDS011;58943;50.168;4.410;2023-06-14T07:59:18;6.15;;;5.07;;
58109;SDS011;58943;50.168;4.410;2023-06-14T08:01:44;9.48;;;5.55;;
58109;SDS011;58943;50.168;4.410;2023-06-14T08:04:12;7.25;;;5.30;;
58109;SDS011;58943;50.168;4.410;2023-06-14T08:06:39;6.28;;;5.10;;
58109;SDS011;58943;50.168;4.410;2023-06-14T08:09:05;6.05;;;5.13;;
58109;SDS011;58943;50.168;4.410;2023-06-14T08:11:31;7.03;;;4.97;;
58109;SDS011;58943;50.168;4.410;2023-06-14T08:13:58;7.38;;;5.40;;
58109;SDS011;58943;50.168;4.410;2023-06-14T08:16:24;5.70;;;5.10;;
58109;SDS011;58943;50.168;4.410;2023-06-14T08:18:50;6.13;;;4.97;;
58109;SDS011;58943;50.168;4.410;2023-06-14T08:21:17;6.10;;;4.75;;
58109;SDS011;58943;50.168;4.410;2023-06-14T08:23:43;5.68;;;5.10;;
58109;SDS011;58943;50.168;4.410;2023-06-14T08:26:10;7.95;;;5.00;;
58109;SDS011;58943;50.168;4.410;2023-06-14T08:28:36;8.18;;;4.93;;
58109;SDS011;58943;50.168;4.410;2023-06-14T08:31:02;7.50;;;5.15;;
58109;SDS011;58943;50.168;4.410;2023-06-14T08:33:29;9.50;;;5.38;;
58109;SDS011;58943;50.168;4.410;2023-06-14T08:35:58;6.32;;;4.85;;
58109;SDS011;58943;50.168;4.410;2023-06-14T08:38:24;5.85;;;5.20;;
58109;SDS011;58943;50.168;4.410;2023-06-14T08:40:51;5.68;;;5.07;;
58109;SDS011;58943;50.168;4.410;2023-06-14T08:43:18;5.83;;;5.23;;
58109;SDS011;58943;50.168;4.410;2023-06-14T08:45:46;5.75;;;5.15;;
58109;SDS011;58943;50.168;4.410;2023-06-14T08:48:12;5.95;;;5.05;;
58109;SDS011;58943;50.168;4.410;2023-06-14T08:50:42;6.75;;;5.20;;
58109;SDS011;58943;50.168;4.410;2023-06-14T08:53:09;6.03;;;5.22;;
58109;SDS011;58943;50.168;4.410;2023-06-14T08:55:38;6.78;;;5.10;;
58109;SDS011;58943;50.168;4.410;2023-06-14T08:58:05;5.80;;;4.90;;
58109;SDS011;58943;50.168;4.410;2023-06-14T09:00:31;6.30;;;5.20;;
58109;SDS011;58943;50.168;4.410;2023-06-14T09:02:58;7.05;;;5.03;;
58109;SDS011;58943;50.168;4.410;2023-06-14T09:05:25;6.60;;;5.13;;
58109;SDS011;58943;50.168;4.410;2023-06-14T09:07:52;13.77;;;5.78;;
58109;SDS011;58943;50.168;4.410;2023-06-14T09:10:21;10.05;;;5.32;;
58109;SDS011;58943;50.168;4.410;2023-06-14T09:12:51;6.43;;;4.93;;
58109;SDS011;58943;50.168;4.410;2023-06-14T09:15:17;7.10;;;5.00;;
58109;SDS011;58943;50.168;4.410;2023-06-14T09:17:44;6.95;;;5.10;;
58109;SDS011;58943;50.168;4.410;2023-06-14T09:20:11;9.27;;;5.03;;
58109;SDS011;58943;50.168;4.410;2023-06-14T09:22:44;6.50;;;5.43;;
58109;SDS011;58943;50.168;4.410;2023-06-14T09:25:10;9.20;;;5.18;;
58109;SDS011;58943;50.168;4.410;2023-06-14T09:27:41;6.07;;;4.75;;
58109;SDS011;58943;50.168;4.410;2023-06-14T09:30:10;6.45;;;5.70;;
58109;SDS011;58943;50.168;4.410;2023-06-14T09:32:37;8.43;;;5.30;;
58109;SDS011;58943;50.168;4.410;2023-06-14T09:35:14;6.88;;;5.43;;
58109;SDS011;58943;50.168;4.410;2023-06-14T09:37:44;7.18;;;5.10;;
58109;SDS011;58943;50.168;4.410;2023-06-14T09:40:10;6.30;;;5.28;;
58109;SDS011;58943;50.168;4.410;2023-06-14T09:42:37;6.43;;;5.38;;
58109;SDS011;58943;50.168;4.410;2023-06-14T09:45:06;7.65;;;4.80;;
58109;SDS011;58943;50.168;4.410;2023-06-14T09:47:33;6.68;;;5.13;;
58109;SDS011;58943;50.168;4.410;2023-06-14T09:49:59;7.50;;;5.57;;
58109;SDS011;58943;50.168;4.410;2023-06-14T09:52:25;5.63;;;4.70;;
58109;SDS011;58943;50.168;4.410;2023-06-14T09:54:53;6.90;;;5.40;;
58109;SDS011;58943;50.168;4.410;2023-06-14T09:57:21;8.40;;;5.28;;
58109;SDS011;58943;50.168;4.410;2023-06-14T09:59:48;5.82;;;5.07;;
58109;SDS011;58943;50.168;4.410;2023-06-14T10:02:25;8.02;;;5.15;;
58109;SDS011;58943;50.168;4.410;2023-06-14T10:05:00;7.03;;;5.40;;
58109;SDS011;58943;50.168;4.410;2023-06-14T10:07:30;8.05;;;5.05;;
58109;SDS011;58943;50.168;4.410;2023-06-14T10:09:59;7.10;;;5.07;;
58109;SDS011;58943;50.168;4.410;2023-06-14T10:12:25;8.50;;;4.70;;
58109;SDS011;58943;50.168;4.410;2023-06-14T10:14:52;7.35;;;5.05;;
58109;SDS011;58943;50.168;4.410;2023-06-14T10:19:55;7.97;;;4.78;;
58109;SDS011;58943;50.168;4.410;2023-06-14T10:22:36;6.90;;;4.72;;
58109;SDS011;58943;50.168;4.410;2023-06-14T10:25:06;7.55;;;5.20;;
58109;SDS011;58943;50.168;4.410;2023-06-14T10:27:38;6.90;;;4.82;;
58109;SDS011;58943;50.168;4.410;2023-06-14T10:30:14;5.60;;;5.10;;
58109;SDS011;58943;50.168;4.410;2023-06-14T10:35:26;6.35;;;4.28;;
58109;SDS011;58943;50.168;4.410;2023-06-14T10:37:52;7.82;;;4.53;;
58109;SDS011;58943;50.168;4.410;2023-06-14T10:40:29;5.10;;;4.40;;
58109;SDS011;58943;50.168;4.410;2023-06-14T10:42:56;5.18;;;4.32;;
58109;SDS011;58943;50.168;4.410;2023-06-14T10:45:23;6.07;;;4.63;;
58109;SDS011;58943;50.168;4.410;2023-06-14T10:47:49;4.90;;;4.10;;
58109;SDS011;58943;50.168;4.410;2023-06-14T10:50:19;7.32;;;4.60;;
58109;SDS011;58943;50.168;4.410;2023-06-14T10:52:54;5.75;;;4.35;;
58109;SDS011;58943;50.168;4.410;2023-06-14T10:55:21;6.07;;;4.43;;
58109;SDS011;58943;50.168;4.410;2023-06-14T10:57:48;6.15;;;4.38;;
58109;SDS011;58943;50.168;4.410;2023-06-14T11:00:22;6.50;;;4.72;;
58109;SDS011;58943;50.168;4.410;2023-06-14T11:11:07;6.10;;;4.55;;
58109;SDS011;58943;50.168;4.410;2023-06-14T11:13:36;7.43;;;4.38;;
58109;SDS011;58943;50.168;4.410;2023-06-14T11:16:10;5.15;;;4.25;;
58109;SDS011;58943;50.168;4.410;2023-06-14T11:18:37;7.38;;;4.63;;
58109;SDS011;58943;50.168;4.410;2023-06-14T11:21:03;7.22;;;4.38;;
58109;SDS011;58943;50.168;4.410;2023-06-14T11:23:30;5.75;;;4.10;;
58109;SDS011;58943;50.168;4.410;2023-06-14T11:25:56;4.95;;;4.10;;
58109;SDS011;58943;50.168;4.410;2023-06-14T11:28:23;5.53;;;4.53;;
58109;SDS011;58943;50.168;4.410;2023-06-14T11:31:00;5.63;;;4.47;;
58109;SDS011;58943;50.168;4.410;2023-06-14T11:33:26;7.30;;;4.43;;
58109;SDS011;58943;50.168;4.410;2023-06-14T11:35:53;4.43;;;3.92;;
58109;SDS011;58943;50.168;4.410;2023-06-14T11:38:19;10.23;;;3.95;;
58109;SDS011;58943;50.168;4.410;2023-06-14T11:40:46;4.30;;;3.78;;
58109;SDS011;58943;50.168;4.410;2023-06-14T11:43:12;4.80;;;4.30;;
58109;SDS011;58943;50.168;4.410;2023-06-14T11:45:39;5.20;;;4.03;;
58109;SDS011;58943;50.168;4.410;2023-06-14T11:48:06;6.95;;;4.30;;
58109;SDS011;58943;50.168;4.410;2023-06-14T11:50:32;5.57;;;4.30;;
58109;SDS011;58943;50.168;4.410;2023-06-14T11:53:04;6.10;;;3.92;;
58109;SDS011;58943;50.168;4.410;2023-06-14T11:55:38;7.47;;;4.40;;
58109;SDS011;58943;50.168;4.410;2023-06-14T11:58:05;8.63;;;4.10;;
58109;SDS011;58943;50.168;4.410;2023-06-14T12:00:32;5.40;;;3.90;;
58109;SDS011;58943;50.168;4.410;2023-06-14T12:02:58;4.25;;;3.60;;
58109;SDS011;58943;50.168;4.410;2023-06-14T12:05:25;4.68;;;3.67;;
58109;SDS011;58943;50.168;4.410;2023-06-14T12:07:59;5.28;;;3.65;;
58109;SDS011;58943;50.168;4.410;2023-06-14T12:10:26;5.18;;;3.72;;
58109;SDS011;58943;50.168;4.410;2023-06-14T12:12:56;6.15;;;4.18;;
58109;SDS011;58943;50.168;4.410;2023-06-14T12:15:24;6.60;;;3.40;;
58109;SDS011;58943;50.168;4.410;2023-06-14T12:17:50;5.82;;;4.00;;
58109;SDS011;58943;50.168;4.410;2023-06-14T12:20:17;4.20;;;3.50;;
58109;SDS011;58943;50.168;4.410;2023-06-14T12:22:51;4.75;;;3.80;;
58109;SDS011;58943;50.168;4.410;2023-06-14T12:25:26;5.40;;;3.80;;
58109;SDS011;58943;50.168;4.410;2023-06-14T12:27:56;5.95;;;3.45;;
58109;SDS011;58943;50.168;4.410;2023-06-14T12:30:23;5.47;;;3.70;;
58109;SDS011;58943;50.168;4.410;2023-06-14T12:32:50;4.15;;;3.72;;
58109;SDS011;58943;50.168;4.410;2023-06-14T12:35:17;7.00;;;3.80;;
58109;SDS011;58943;50.168;4.410;2023-06-14T12:37:44;4.45;;;3.60;;
58109;SDS011;58943;50.168;4.410;2023-06-14T12:40:11;7.03;;;3.80;;
58109;SDS011;58943;50.168;4.410;2023-06-14T12:42:38;6.70;;;3.50;;
58109;SDS011;58943;50.168;4.410;2023-06-14T12:45:04;7.50;;;3.30;;
58109;SDS011;58943;50.168;4.410;2023-06-14T12:47:31;5.20;;;3.10;;
58109;SDS011;58943;50.168;4.410;2023-06-14T12:49:57;7.63;;;3.65;;
58109;SDS011;58943;50.168;4.410;2023-06-14T12:52:23;5.68;;;4.10;;
58109;SDS011;58943;50.168;4.410;2023-06-14T12:54:50;6.03;;;3.47;;
58109;SDS011;58943;50.168;4.410;2023-06-14T12:57:16;4.18;;;3.40;;
58109;SDS011;58943;50.168;4.410;2023-06-14T12:59:43;4.53;;;3.10;;
58109;SDS011;58943;50.168;4.410;2023-06-14T13:02:13;4.15;;;3.40;;
58109;SDS011;58943;50.168;4.410;2023-06-14T13:04:39;3.80;;;3.25;;
58109;SDS011;58943;50.168;4.410;2023-06-14T13:07:06;4.82;;;3.42;;
58109;SDS011;58943;50.168;4.410;2023-06-14T13:09:32;6.57;;;3.85;;
58109;SDS011;58943;50.168;4.410;2023-06-14T13:11:59;4.05;;;3.30;;
58109;SDS011;58943;50.168;4.410;2023-06-14T13:14:25;5.75;;;3.33;;
58109;SDS011;58943;50.168;4.410;2023-06-14T13:16:52;4.38;;;3.33;;
58109;SDS011;58943;50.168;4.410;2023-06-14T13:19:18;6.35;;;3.35;;
58109;SDS011;58943;50.168;4.410;2023-06-14T13:21:45;4.82;;;3.05;;
58109;SDS011;58943;50.168;4.410;2023-06-14T13:24:11;4.03;;;3.33;;
58109;SDS011;58943;50.168;4.410;2023-06-14T13:26:38;5.70;;;3.33;;
58109;SDS011;58943;50.168;4.410;2023-06-14T13:29:04;4.55;;;3.35;;
58109;SDS011;58943;50.168;4.410;2023-06-14T13:31:31;5.82;;;3.70;;
58109;SDS011;58943;50.168;4.410;2023-06-14T13:33:57;5.57;;;3.22;;
58109;SDS011;58943;50.168;4.410;2023-06-14T13:36:24;4.40;;;3.45;;
58109;SDS011;58943;50.168;4.410;2023-06-14T13:38:50;3.45;;;3.15;;
58109;SDS011;58943;50.168;4.410;2023-06-14T13:41:18;5.85;;;3.08;;
58109;SDS011;58943;50.168;4.410;2023-06-14T13:43:44;4.32;;;2.95;;
58109;SDS011;58943;50.168;4.410;2023-06-14T13:46:11;3.75;;;2.85;;
58109;SDS011;58943;50.168;4.410;2023-06-14T13:48:37;4.68;;;2.78;;
58109;SDS011;58943;50.168;4.410;2023-06-14T13:51:04;3.40;;;3.00;;
58109;SDS011;58943;50.168;4.410;2023-06-14T13:53:30;3.88;;;2.90;;
58109;SDS011;58943;50.168;4.410;2023-06-14T13:55:57;4.63;;;2.85;;
58109;SDS011;58943;50.168;4.410;2023-06-14T13:58:24;4.15;;;2.42;;
58109;SDS011;58943;50.168;4.410;2023-06-14T14:00:50;2.63;;;2.42;;
58109;SDS011;58943;50.168;4.410;2023-06-14T14:03:16;4.65;;;2.70;;
58109;SDS011;58943;50.168;4.410;2023-06-14T14:05:44;2.67;;;2.40;;
58109;SDS011;58943;50.168;4.410;2023-06-14T14:08:11;3.85;;;2.85;;
58109;SDS011;58943;50.168;4.410;2023-06-14T14:10:38;5.32;;;2.72;;
58109;SDS011;58943;50.168;4.410;2023-06-14T14:13:04;2.72;;;2.45;;
58109;SDS011;58943;50.168;4.410;2023-06-14T14:15:31;3.40;;;2.40;;
58109;SDS011;58943;50.168;4.410;2023-06-14T14:20:26;3.78;;;2.30;;
58109;SDS011;58943;50.168;4.410;2023-06-14T14:22:52;2.33;;;2.10;;
58109;SDS011;58943;50.168;4.410;2023-06-14T14:25:18;2.50;;;2.17;;
58109;SDS011;58943;50.168;4.410;2023-06-14T14:27:45;3.08;;;2.47;;
58109;SDS011;58943;50.168;4.410;2023-06-14T14:30:11;4.53;;;2.03;;
58109;SDS011;58943;50.168;4.410;2023-06-14T14:32:39;3.30;;;2.10;;
58109;SDS011;58943;50.168;4.410;2023-06-14T14:35:06;2.30;;;2.10;;
58109;SDS011;58943;50.168;4.410;2023-06-14T14:37:32;5.35;;;2.42;;
58109;SDS011;58943;50.168;4.410;2023-06-14T14:39:58;3.75;;;2.08;;
58109;SDS011;58943;50.168;4.410;2023-06-14T14:42:25;2.63;;;1.98;;
58109;SDS011;58943;50.168;4.410;2023-06-14T14:44:53;2.53;;;2.10;;
58109;SDS011;58943;50.168;4.410;2023-06-14T14:47:19;3.38;;;1.80;;
58109;SDS011;58943;50.168;4.410;2023-06-14T14:49:46;4.95;;;2.20;;
58109;SDS011;58943;50.168;4.410;2023-06-14T14:52:12;2.35;;;1.85;;
58109;SDS011;58943;50.168;4.410;2023-06-14T14:54:39;3.58;;;2.00;;
58109;SDS011;58943;50.168;4.410;2023-06-14T14:57:05;3.97;;;2.00;;
58109;SDS011;58943;50.168;4.410;2023-06-14T14:59:32;2.83;;;1.75;;
58109;SDS011;58943;50.168;4.410;2023-06-14T15:01:58;2.97;;;1.77;;
58109;SDS011;58943;50.168;4.410;2023-06-14T15:04:24;3.75;;;2.05;;
58109;SDS011;58943;50.168;4.410;2023-06-14T15:06:51;2.45;;;2.00;;
58109;SDS011;58943;50.168;4.410;2023-06-14T15:09:17;2.47;;;1.73;;